createdAt,value
2019-01-27T00:00:54.245Z,978.13
2019-01-27T00:01:54.230Z,978.09
2019-01-27T00:02:54.201Z,978.03
2019-01-27T00:03:54.181Z,978.03
2019-01-27T00:04:54.156Z,977.99
2019-01-27T00:05:54.126Z,978.01
2019-01-27T00:06:54.104Z,978.00
2019-01-27T00:07:54.088Z,977.95
2019-01-27T00:08:54.062Z,977.96
2019-01-27T00:09:54.037Z,977.90
2019-01-27T00:10:54.007Z,977.96
2019-01-27T00:11:53.985Z,977.80
2019-01-27T00:12:53.960Z,977.89
2019-01-27T00:13:53.945Z,977.77
2019-01-27T00:14:53.912Z,977.70
2019-01-27T00:15:53.891Z,977.71
2019-01-27T00:16:53.864Z,977.68
2019-01-27T00:17:53.842Z,977.63
2019-01-27T00:18:53.820Z,977.66
2019-01-27T00:19:53.807Z,977.62
2019-01-27T00:20:53.773Z,977.54
2019-01-27T00:21:53.748Z,977.37
2019-01-27T00:22:53.728Z,977.33
2019-01-27T00:23:53.704Z,977.36
2019-01-27T00:24:53.675Z,977.44
2019-01-27T00:25:53.659Z,977.34
2019-01-27T00:26:53.638Z,977.33
2019-01-27T00:27:53.605Z,977.29
2019-01-27T00:28:53.589Z,977.30
2019-01-27T00:29:53.557Z,977.33
2019-01-27T00:30:53.535Z,977.26
2019-01-27T00:31:53.509Z,977.28
2019-01-27T00:32:53.492Z,977.24
2019-01-27T00:33:53.463Z,977.21
2019-01-27T00:34:53.441Z,977.16
2019-01-27T00:35:53.421Z,977.12
2019-01-27T00:36:53.399Z,977.15
2019-01-27T00:37:53.374Z,977.11
2019-01-27T00:38:53.347Z,977.10
2019-01-27T00:39:53.323Z,977.00
2019-01-27T00:40:53.297Z,977.01
2019-01-27T00:41:53.274Z,977.04
2019-01-27T00:42:53.255Z,977.00
2019-01-27T00:43:53.230Z,977.06
2019-01-27T00:44:53.207Z,977.02
2019-01-27T00:45:53.178Z,976.95
2019-01-27T00:46:53.156Z,976.85
2019-01-27T00:47:53.140Z,976.94
2019-01-27T00:48:53.109Z,976.81
2019-01-27T00:49:53.091Z,976.79
2019-01-27T00:50:53.069Z,976.76
2019-01-27T00:51:53.037Z,976.69
2019-01-27T00:52:53.015Z,976.67
2019-01-27T00:53:52.996Z,976.68
2019-01-27T00:54:52.977Z,976.72
2019-01-27T00:55:52.951Z,976.69
2019-01-27T00:56:52.925Z,976.68
2019-01-27T00:57:52.904Z,976.69
2019-01-27T00:58:52.875Z,976.84
2019-01-27T00:59:52.850Z,976.73
2019-01-27T01:00:52.834Z,976.74
2019-01-27T01:01:52.805Z,976.71
2019-01-27T01:02:52.786Z,976.58
2019-01-27T01:03:52.757Z,976.60
2019-01-27T01:04:52.738Z,976.59
2019-01-27T01:05:52.707Z,976.59
2019-01-27T01:06:52.685Z,976.49
2019-01-27T01:07:52.672Z,976.46
2019-01-27T01:08:52.638Z,976.45
2019-01-27T01:09:52.620Z,976.47
2019-01-27T01:10:52.599Z,976.41
2019-01-27T01:11:53.458Z,976.38
2019-01-27T01:12:52.544Z,976.40
2019-01-27T01:13:52.522Z,976.39
2019-01-27T01:14:52.502Z,976.37
2019-01-27T01:15:52.480Z,976.30
2019-01-27T01:16:52.455Z,976.27
2019-01-27T01:17:52.433Z,976.31
2019-01-27T01:18:52.410Z,976.31
2019-01-27T01:19:52.380Z,976.22
2019-01-27T01:20:52.356Z,976.20
2019-01-27T01:21:52.340Z,976.15
2019-01-27T01:22:52.315Z,976.16
2019-01-27T01:23:52.287Z,976.09
2019-01-27T01:24:52.271Z,976.14
2019-01-27T01:25:52.243Z,976.15
2019-01-27T01:26:52.214Z,976.10
2019-01-27T01:27:52.198Z,976.11
2019-01-27T01:28:52.176Z,976.04
2019-01-27T01:29:52.147Z,975.94
2019-01-27T01:30:52.122Z,975.94
2019-01-27T01:31:52.104Z,975.97
2019-01-27T01:32:52.073Z,975.90
2019-01-27T01:33:52.053Z,975.98
2019-01-27T01:34:52.027Z,975.86
2019-01-27T01:35:52.003Z,975.79
2019-01-27T01:36:51.979Z,975.92
2019-01-27T01:37:51.960Z,975.89
2019-01-27T01:38:51.931Z,975.84
2019-01-27T01:39:51.915Z,975.80
2019-01-27T01:40:51.887Z,975.78
2019-01-27T01:41:51.862Z,975.81
2019-01-27T01:42:51.839Z,975.83
2019-01-27T01:43:51.814Z,975.79
2019-01-27T01:44:51.792Z,975.83
2019-01-27T01:45:51.766Z,975.79
2019-01-27T01:46:51.740Z,975.70
2019-01-27T01:47:51.722Z,975.70
2019-01-27T01:48:51.701Z,975.64
2019-01-27T01:49:51.675Z,975.63
2019-01-27T01:50:51.656Z,975.66
2019-01-27T01:51:51.627Z,975.65
2019-01-27T01:52:51.601Z,975.60
2019-01-27T01:53:51.579Z,975.60
2019-01-27T01:54:51.565Z,975.55
2019-01-27T01:55:51.537Z,975.45
2019-01-27T01:56:51.512Z,975.49
2019-01-27T01:57:51.489Z,975.43
2019-01-27T01:58:51.468Z,975.48
2019-01-27T01:59:51.446Z,975.39
2019-01-27T02:00:51.414Z,975.32
2019-01-27T02:01:51.391Z,975.41
2019-01-27T02:02:51.373Z,975.30
2019-01-27T02:03:51.344Z,975.40
2019-01-27T02:04:52.248Z,975.24
2019-01-27T02:05:51.298Z,975.23
2019-01-27T02:06:51.273Z,975.25
2019-01-27T02:07:51.250Z,975.20
2019-01-27T02:08:51.235Z,975.20
2019-01-27T02:09:51.208Z,975.12
2019-01-27T02:10:51.186Z,975.16
2019-01-27T02:11:51.164Z,975.08
2019-01-27T02:12:51.138Z,975.09
2019-01-27T02:13:51.112Z,975.01
2019-01-27T02:14:51.086Z,975.01
2019-01-27T02:15:51.069Z,974.99
2019-01-27T02:16:51.038Z,975.01
2019-01-27T02:17:51.016Z,975.00
2019-01-27T02:18:51.000Z,974.98
2019-01-27T02:19:50.977Z,974.84
2019-01-27T02:20:50.945Z,974.92
2019-01-27T02:21:50.923Z,974.87
2019-01-27T02:22:50.900Z,974.77
2019-01-27T02:23:50.885Z,974.81
2019-01-27T02:24:50.860Z,974.68
2019-01-27T02:25:50.830Z,974.71
2019-01-27T02:26:50.811Z,974.73
2019-01-27T02:27:50.783Z,974.65
2019-01-27T02:28:50.766Z,974.61
2019-01-27T02:29:50.737Z,974.62
2019-01-27T02:30:50.721Z,974.69
2019-01-27T02:31:50.696Z,974.68
2019-01-27T02:32:50.674Z,974.65
2019-01-27T02:33:50.641Z,974.62
2019-01-27T02:34:50.618Z,974.63
2019-01-27T02:35:50.593Z,974.58
2019-01-27T02:36:50.577Z,974.52
2019-01-27T02:37:50.548Z,974.57
2019-01-27T02:38:50.528Z,974.61
2019-01-27T02:39:50.505Z,974.64
2019-01-27T02:40:50.477Z,974.52
2019-01-27T02:41:50.460Z,974.48
2019-01-27T02:42:50.428Z,974.43
2019-01-27T02:43:50.408Z,974.50
2019-01-27T02:44:50.391Z,974.48
2019-01-27T02:45:50.364Z,974.50
2019-01-27T02:46:50.340Z,974.45
2019-01-27T02:47:50.311Z,974.48
2019-01-27T02:48:50.296Z,974.36
2019-01-27T02:49:50.266Z,974.33
2019-01-27T02:50:50.240Z,974.26
2019-01-27T02:51:50.232Z,974.25
2019-01-27T02:52:50.197Z,974.25
2019-01-27T02:53:50.171Z,974.20
2019-01-27T02:54:50.156Z,974.16
2019-01-27T02:55:50.131Z,974.22
2019-01-27T02:56:50.109Z,974.20
2019-01-27T02:57:50.078Z,974.16
2019-01-27T02:58:50.063Z,974.11
2019-01-27T02:59:50.039Z,974.12
2019-01-27T03:00:50.013Z,974.13
2019-01-27T03:01:49.985Z,974.09
2019-01-27T03:02:49.962Z,974.09
2019-01-27T03:03:49.940Z,974.04
2019-01-27T03:04:49.918Z,974.06
2019-01-27T03:05:49.889Z,974.12
2019-01-27T03:06:49.878Z,974.07
2019-01-27T03:07:49.845Z,974.00
2019-01-27T03:08:49.826Z,973.98
2019-01-27T03:09:49.804Z,973.99
2019-01-27T03:10:49.775Z,973.94
2019-01-27T03:11:49.762Z,973.96
2019-01-27T03:12:49.728Z,973.93
2019-01-27T03:13:49.705Z,973.85
2019-01-27T03:14:49.689Z,973.80
2019-01-27T03:15:49.664Z,973.82
2019-01-27T03:16:49.640Z,973.71
2019-01-27T03:17:49.661Z,973.75
2019-01-27T03:18:49.583Z,973.65
2019-01-27T03:19:49.570Z,973.66
2019-01-27T03:20:49.545Z,973.65
2019-01-27T03:21:49.522Z,973.66
2019-01-27T03:22:49.501Z,973.63
2019-01-27T03:23:49.473Z,973.54
2019-01-27T03:24:49.451Z,973.62
2019-01-27T03:25:49.425Z,973.53
2019-01-27T03:26:49.401Z,973.57
2019-01-27T03:27:49.385Z,973.47
2019-01-27T03:28:49.357Z,973.47
2019-01-27T03:29:49.328Z,973.36
2019-01-27T03:30:49.309Z,973.40
2019-01-27T03:31:49.289Z,973.24
2019-01-27T03:32:49.260Z,973.35
2019-01-27T03:33:49.250Z,973.37
2019-01-27T03:34:49.218Z,973.30
2019-01-27T03:35:49.195Z,973.33
2019-01-27T03:36:49.170Z,973.35
2019-01-27T03:37:49.161Z,973.32
2019-01-27T03:38:49.128Z,973.32
2019-01-27T03:39:49.104Z,973.25
2019-01-27T03:40:49.081Z,973.36
2019-01-27T03:41:49.061Z,973.16
2019-01-27T03:42:49.037Z,973.31
2019-01-27T03:43:49.009Z,973.13
2019-01-27T03:44:48.983Z,973.15
2019-01-27T03:45:48.961Z,973.03
2019-01-27T03:46:48.938Z,973.13
2019-01-27T03:47:48.913Z,973.02
2019-01-27T03:48:48.889Z,973.12
2019-01-27T03:49:48.867Z,973.02
2019-01-27T03:50:48.861Z,973.06
2019-01-27T03:51:48.819Z,973.00
2019-01-27T03:52:48.806Z,973.00
2019-01-27T03:53:48.781Z,972.90
2019-01-27T03:54:48.753Z,973.03
2019-01-27T03:55:48.729Z,973.05
2019-01-27T03:56:48.705Z,973.04
2019-01-27T03:57:48.681Z,972.95
2019-01-27T03:58:48.658Z,972.98
2019-01-27T03:59:48.639Z,972.92
2019-01-27T04:00:48.616Z,972.88
2019-01-27T04:01:48.588Z,972.91
2019-01-27T04:02:48.566Z,972.85
2019-01-27T04:03:48.541Z,972.85
2019-01-27T04:04:48.517Z,972.78
2019-01-27T04:05:48.501Z,972.80
2019-01-27T04:06:48.480Z,972.79
2019-01-27T04:07:48.446Z,972.79
2019-01-27T04:08:48.435Z,972.73
2019-01-27T04:09:48.402Z,972.77
2019-01-27T04:10:48.383Z,972.70
2019-01-27T04:11:48.354Z,972.54
2019-01-27T04:12:48.335Z,972.61
2019-01-27T04:13:48.317Z,972.64
2019-01-27T04:14:48.283Z,972.61
2019-01-27T04:15:48.270Z,972.70
2019-01-27T04:16:48.238Z,972.67
2019-01-27T04:17:48.212Z,972.62
2019-01-27T04:18:48.192Z,972.60
2019-01-27T04:19:48.165Z,972.60
2019-01-27T04:20:48.149Z,972.59
2019-01-27T04:21:48.117Z,972.58
2019-01-27T04:22:48.101Z,972.55
2019-01-27T04:23:48.082Z,972.52
2019-01-27T04:24:48.048Z,972.46
2019-01-27T04:25:48.032Z,972.51
2019-01-27T04:26:48.014Z,972.50
2019-01-27T04:27:48.017Z,972.45
2019-01-27T04:28:47.962Z,972.44
2019-01-27T04:29:47.930Z,972.41
2019-01-27T04:30:47.911Z,972.40
2019-01-27T04:31:47.894Z,972.44
2019-01-27T04:32:47.860Z,972.35
2019-01-27T04:33:47.845Z,972.30
2019-01-27T04:34:47.824Z,972.26
2019-01-27T04:35:47.797Z,972.34
2019-01-27T04:36:47.770Z,972.31
2019-01-27T04:37:47.750Z,972.32
2019-01-27T04:38:47.719Z,972.40
2019-01-27T04:39:47.705Z,972.27
2019-01-27T04:40:47.675Z,972.29
2019-01-27T04:41:47.652Z,972.24
2019-01-27T04:42:47.630Z,972.27
2019-01-27T04:43:47.609Z,972.21
2019-01-27T04:44:47.575Z,972.15
2019-01-27T04:45:47.553Z,972.16
2019-01-27T04:46:47.531Z,972.15
2019-01-27T04:47:47.508Z,972.15
2019-01-27T04:48:47.483Z,972.14
2019-01-27T04:49:47.459Z,972.15
2019-01-27T04:50:47.432Z,972.14
2019-01-27T04:51:47.413Z,972.12
2019-01-27T04:52:47.387Z,972.14
2019-01-27T04:53:47.364Z,972.11
2019-01-27T04:54:47.342Z,972.10
2019-01-27T04:55:47.323Z,971.99
2019-01-27T04:56:47.292Z,972.12
2019-01-27T04:57:47.276Z,972.04
2019-01-27T04:58:47.246Z,972.04
2019-01-27T04:59:47.224Z,972.03
2019-01-27T05:00:47.203Z,972.00
2019-01-27T05:01:47.175Z,972.06
2019-01-27T05:02:47.157Z,972.00
2019-01-27T05:03:47.133Z,971.99
2019-01-27T05:04:47.104Z,971.94
2019-01-27T05:05:47.084Z,971.94
2019-01-27T05:06:47.060Z,972.05
2019-01-27T05:07:47.041Z,971.93
2019-01-27T05:08:47.009Z,971.97
2019-01-27T05:09:46.986Z,971.89
2019-01-27T05:10:46.966Z,972.01
2019-01-27T05:11:46.972Z,971.87
2019-01-27T05:12:46.920Z,971.89
2019-01-27T05:13:46.901Z,971.83
2019-01-27T05:14:46.868Z,971.79
2019-01-27T05:15:46.846Z,971.75
2019-01-27T05:16:46.819Z,971.81
2019-01-27T05:17:46.796Z,971.81
2019-01-27T05:18:46.777Z,971.78
2019-01-27T05:19:46.759Z,971.79
2019-01-27T05:20:46.723Z,971.74
2019-01-27T05:21:46.708Z,971.75
2019-01-27T05:22:46.679Z,971.72
2019-01-27T05:23:46.655Z,971.64
2019-01-27T05:24:46.631Z,971.69
2019-01-27T05:25:46.609Z,971.65
2019-01-27T05:26:46.583Z,971.67
2019-01-27T05:27:46.567Z,971.71
2019-01-27T05:28:46.537Z,971.63
2019-01-27T05:29:46.509Z,971.66
2019-01-27T05:30:46.487Z,971.66
2019-01-27T05:31:46.478Z,971.64
2019-01-27T05:32:46.438Z,971.66
2019-01-27T05:33:46.417Z,971.60
2019-01-27T05:34:46.400Z,971.63
2019-01-27T05:35:46.372Z,971.75
2019-01-27T05:36:47.224Z,971.61
2019-01-27T05:37:46.329Z,971.57
2019-01-27T05:38:46.297Z,971.49
2019-01-27T05:39:46.275Z,971.41
2019-01-27T05:40:46.249Z,971.39
2019-01-27T05:41:46.232Z,971.29
2019-01-27T05:42:46.208Z,971.45
2019-01-27T05:43:46.179Z,971.24
2019-01-27T05:44:46.157Z,971.38
2019-01-27T05:45:46.132Z,971.33
2019-01-27T05:46:46.108Z,971.36
2019-01-27T05:47:46.087Z,971.30
2019-01-27T05:48:46.066Z,971.28
2019-01-27T05:49:46.046Z,971.24
2019-01-27T05:50:46.014Z,971.20
2019-01-27T05:51:45.989Z,971.29
2019-01-27T05:52:45.972Z,971.27
2019-01-27T05:53:45.942Z,971.24
2019-01-27T05:54:45.923Z,971.22
2019-01-27T05:55:45.893Z,971.25
2019-01-27T05:56:45.872Z,971.23
2019-01-27T05:57:45.848Z,971.23
2019-01-27T05:58:45.825Z,971.18
2019-01-27T05:59:45.808Z,971.10
2019-01-27T06:00:45.775Z,971.19
2019-01-27T06:01:45.753Z,971.10
2019-01-27T06:02:45.730Z,971.14
2019-01-27T06:03:45.707Z,971.06
2019-01-27T06:04:45.687Z,970.95
2019-01-27T06:05:45.661Z,971.04
2019-01-27T06:06:45.632Z,971.01
2019-01-27T06:07:45.610Z,970.97
2019-01-27T06:08:45.585Z,970.97
2019-01-27T06:09:45.562Z,970.98
2019-01-27T06:10:45.540Z,970.99
2019-01-27T06:11:45.520Z,971.01
2019-01-27T06:12:45.492Z,970.85
2019-01-27T06:13:45.467Z,970.87
2019-01-27T06:14:45.447Z,970.90
2019-01-27T06:15:45.430Z,970.95
2019-01-27T06:16:45.397Z,970.97
2019-01-27T06:17:45.376Z,970.99
2019-01-27T06:18:45.349Z,970.92
2019-01-27T06:19:45.327Z,970.88
2019-01-27T06:20:45.304Z,970.98
2019-01-27T06:21:45.279Z,971.01
2019-01-27T06:22:45.256Z,970.95
2019-01-27T06:23:45.230Z,971.00
2019-01-27T06:24:45.211Z,970.90
2019-01-27T06:25:45.183Z,970.95
2019-01-27T06:26:45.164Z,970.92
2019-01-27T06:27:45.138Z,970.95
2019-01-27T06:28:45.119Z,970.93
2019-01-27T06:29:45.096Z,970.84
2019-01-27T06:30:45.068Z,970.88
2019-01-27T06:31:45.042Z,970.87
2019-01-27T06:32:45.020Z,970.95
2019-01-27T06:33:44.997Z,970.91
2019-01-27T06:34:44.972Z,970.87
2019-01-27T06:35:44.958Z,970.83
2019-01-27T06:36:44.932Z,970.84
2019-01-27T06:37:44.900Z,970.89
2019-01-27T06:38:44.886Z,970.86
2019-01-27T06:39:44.855Z,970.80
2019-01-27T06:40:44.832Z,970.86
2019-01-27T06:41:44.807Z,970.82
2019-01-27T06:42:44.794Z,970.81
2019-01-27T06:43:44.758Z,970.66
2019-01-27T06:44:44.733Z,970.82
2019-01-27T06:45:44.712Z,970.69
2019-01-27T06:46:44.690Z,970.57
2019-01-27T06:47:44.670Z,970.53
2019-01-27T06:48:44.641Z,970.70
2019-01-27T06:49:44.619Z,970.56
2019-01-27T06:50:44.599Z,970.50
2019-01-27T06:51:44.571Z,970.58
2019-01-27T06:52:44.548Z,970.72
2019-01-27T06:53:44.529Z,970.52
2019-01-27T06:54:44.499Z,970.54
2019-01-27T06:55:44.477Z,970.53
2019-01-27T06:56:44.458Z,970.43
2019-01-27T06:57:44.429Z,970.43
2019-01-27T06:58:44.407Z,970.58
2019-01-27T06:59:44.384Z,970.46
2019-01-27T07:00:44.362Z,970.44
2019-01-27T07:01:44.339Z,970.40
2019-01-27T07:02:44.316Z,970.40
2019-01-27T07:03:44.290Z,970.32
2019-01-27T07:04:44.264Z,970.44
2019-01-27T07:05:44.249Z,970.45
2019-01-27T07:06:44.226Z,970.43
2019-01-27T07:07:44.200Z,970.56
2019-01-27T07:08:44.178Z,970.44
2019-01-27T07:09:44.151Z,970.54
2019-01-27T07:10:44.125Z,970.45
2019-01-27T07:11:44.100Z,970.52
2019-01-27T07:12:44.084Z,970.43
2019-01-27T07:13:44.052Z,970.42
2019-01-27T07:14:44.033Z,970.37
2019-01-27T07:15:44.016Z,970.45
2019-01-27T07:16:43.982Z,970.39
2019-01-27T07:17:43.968Z,970.37
2019-01-27T07:18:43.937Z,970.35
2019-01-27T07:19:43.918Z,970.29
2019-01-27T07:20:43.888Z,970.45
2019-01-27T07:21:43.872Z,970.31
2019-01-27T07:22:43.850Z,970.24
2019-01-27T07:23:43.825Z,970.24
2019-01-27T07:24:43.797Z,970.18
2019-01-27T07:25:43.779Z,970.21
2019-01-27T07:26:43.747Z,970.20
2019-01-27T07:27:43.733Z,970.18
2019-01-27T07:28:43.702Z,970.20
2019-01-27T07:29:43.683Z,970.25
2019-01-27T07:30:43.657Z,970.15
2019-01-27T07:31:43.632Z,970.23
2019-01-27T07:32:43.613Z,970.25
2019-01-27T07:33:43.590Z,970.24
2019-01-27T07:34:43.562Z,970.27
2019-01-27T07:35:43.539Z,970.24
2019-01-27T07:36:43.521Z,970.17
2019-01-27T07:37:43.491Z,970.23
2019-01-27T07:38:43.475Z,970.19
2019-01-27T07:39:43.449Z,970.18
2019-01-27T07:40:43.421Z,970.16
2019-01-27T07:41:43.405Z,970.11
2019-01-27T07:42:43.380Z,970.04
2019-01-27T07:43:43.353Z,970.10
2019-01-27T07:44:43.331Z,970.16
2019-01-27T07:45:43.308Z,970.08
2019-01-27T07:46:43.282Z,970.06
2019-01-27T07:47:43.259Z,970.06
2019-01-27T07:48:43.240Z,970.12
2019-01-27T07:49:43.217Z,970.05
2019-01-27T07:50:43.192Z,970.08
2019-01-27T07:51:43.169Z,970.08
2019-01-27T07:52:43.144Z,970.02
2019-01-27T07:53:43.116Z,970.16
2019-01-27T07:54:43.093Z,970.08
2019-01-27T07:55:43.077Z,970.04
2019-01-27T07:56:43.045Z,970.10
2019-01-27T07:57:43.029Z,970.07
2019-01-27T07:58:43.016Z,970.07
2019-01-27T07:59:42.978Z,970.05
2019-01-27T08:00:42.959Z,970.10
2019-01-27T08:01:42.932Z,970.08
2019-01-27T08:02:42.909Z,970.08
2019-01-27T08:03:42.883Z,970.01
2019-01-27T08:04:42.860Z,970.03
2019-01-27T08:05:42.844Z,970.00
2019-01-27T08:06:42.813Z,969.95
2019-01-27T08:07:42.796Z,970.00
2019-01-27T08:08:42.767Z,969.90
2019-01-27T08:09:42.751Z,969.94
2019-01-27T08:10:42.721Z,969.91
2019-01-27T08:11:42.705Z,969.98
2019-01-27T08:12:42.681Z,969.85
2019-01-27T08:13:42.655Z,969.78
2019-01-27T08:14:42.627Z,969.83
2019-01-27T08:15:42.604Z,969.90
2019-01-27T08:16:42.589Z,969.90
2019-01-27T08:17:42.563Z,969.98
2019-01-27T08:18:42.537Z,969.90
2019-01-27T08:19:42.518Z,970.00
2019-01-27T08:20:42.494Z,969.91
2019-01-27T08:21:42.465Z,969.94
2019-01-27T08:22:42.443Z,969.90
2019-01-27T08:23:42.427Z,969.86
2019-01-27T08:24:42.398Z,969.87
2019-01-27T08:25:42.379Z,969.85
2019-01-27T08:26:42.350Z,969.94
2019-01-27T08:27:42.324Z,969.87
2019-01-27T08:28:42.309Z,969.86
2019-01-27T08:29:42.284Z,969.88
2019-01-27T08:30:42.258Z,969.78
2019-01-27T08:31:42.242Z,969.68
2019-01-27T08:32:42.210Z,969.72
2019-01-27T08:33:42.188Z,969.75
2019-01-27T08:34:42.172Z,969.72
2019-01-27T08:35:42.147Z,969.73
2019-01-27T08:36:42.120Z,969.70
2019-01-27T08:37:42.100Z,969.72
2019-01-27T08:38:42.078Z,969.66
2019-01-27T08:39:42.055Z,969.64
2019-01-27T08:40:42.033Z,969.68
2019-01-27T08:41:42.011Z,969.75
2019-01-27T08:42:43.361Z,969.73
2019-01-27T08:43:41.960Z,969.65
2019-01-27T08:44:41.941Z,969.56
2019-01-27T08:45:41.919Z,969.66
2019-01-27T08:46:41.890Z,969.58
2019-01-27T08:47:41.868Z,969.58
2019-01-27T08:48:41.852Z,969.63
2019-01-27T08:49:41.826Z,969.52
2019-01-27T08:50:41.798Z,969.59
2019-01-27T08:51:41.780Z,969.58
2019-01-27T08:52:41.753Z,969.58
2019-01-27T08:53:41.737Z,969.53
2019-01-27T08:54:41.714Z,969.53
2019-01-27T08:55:41.691Z,969.60
2019-01-27T08:56:41.670Z,969.54
2019-01-27T08:57:41.647Z,969.51
2019-01-27T08:58:41.637Z,969.50
2019-01-27T08:59:41.602Z,969.60
2019-01-27T09:00:41.573Z,969.53
2019-01-27T09:01:41.551Z,969.55
2019-01-27T09:02:41.534Z,969.59
2019-01-27T09:03:41.511Z,969.63
2019-01-27T09:04:41.486Z,969.53
2019-01-27T09:05:41.457Z,969.62
2019-01-27T09:06:41.438Z,969.53
2019-01-27T09:07:41.418Z,969.46
2019-01-27T09:08:41.396Z,969.50
2019-01-27T09:09:41.374Z,969.53
2019-01-27T09:10:41.345Z,969.58
2019-01-27T09:11:41.322Z,969.53
2019-01-27T09:12:41.303Z,969.50
2019-01-27T09:13:41.280Z,969.45
2019-01-27T09:14:41.874Z,969.56
2019-01-27T09:15:41.230Z,969.53
2019-01-27T09:16:41.210Z,969.49
2019-01-27T09:17:41.191Z,969.50
2019-01-27T09:18:41.169Z,969.51
2019-01-27T09:19:41.140Z,969.46
2019-01-27T09:20:41.124Z,969.43
2019-01-27T09:21:41.098Z,969.41
2019-01-27T09:22:41.069Z,969.45
2019-01-27T09:23:41.050Z,969.44
2019-01-27T09:24:41.031Z,969.35
2019-01-27T09:25:41.008Z,969.35
2019-01-27T09:26:40.990Z,969.37
2019-01-27T09:27:40.961Z,969.38
2019-01-27T09:28:40.938Z,969.36
2019-01-27T09:29:40.919Z,969.29
2019-01-27T09:30:40.895Z,969.35
2019-01-27T09:31:40.866Z,969.38
2019-01-27T09:32:40.850Z,969.38
2019-01-27T09:33:40.828Z,969.34
2019-01-27T09:34:40.799Z,969.22
2019-01-27T09:35:40.781Z,969.29
2019-01-27T09:36:40.755Z,969.33
2019-01-27T09:37:40.735Z,969.27
2019-01-27T09:38:40.712Z,969.30
2019-01-27T09:39:40.687Z,969.28
2019-01-27T09:40:40.669Z,969.25
2019-01-27T09:41:40.640Z,969.26
2019-01-27T09:42:40.624Z,969.21
2019-01-27T09:43:40.602Z,969.21
2019-01-27T09:44:40.576Z,969.16
2019-01-27T09:45:40.547Z,969.31
2019-01-27T09:46:40.531Z,969.21
2019-01-27T09:47:40.509Z,969.19
2019-01-27T09:48:40.486Z,969.15
2019-01-27T09:49:40.464Z,969.23
2019-01-27T09:50:40.435Z,969.22
2019-01-27T09:51:40.414Z,969.17
2019-01-27T09:52:40.397Z,969.31
2019-01-27T09:53:40.366Z,969.18
2019-01-27T09:54:40.345Z,969.19
2019-01-27T09:55:40.330Z,969.24
2019-01-27T09:56:40.304Z,969.20
2019-01-27T09:57:40.282Z,969.23
2019-01-27T09:58:40.253Z,969.19
2019-01-27T09:59:40.231Z,969.29
2019-01-27T10:00:40.211Z,969.30
2019-01-27T10:01:40.192Z,969.26
2019-01-27T10:02:40.172Z,969.27
2019-01-27T10:03:40.151Z,969.27
2019-01-27T10:04:40.119Z,969.29
2019-01-27T10:05:40.101Z,969.32
2019-01-27T10:06:40.079Z,969.27
2019-01-27T10:07:40.050Z,969.34
2019-01-27T10:08:40.032Z,969.31
2019-01-27T10:09:40.012Z,969.28
2019-01-27T10:10:39.983Z,969.33
2019-01-27T10:11:39.964Z,969.34
2019-01-27T10:12:39.946Z,969.33
2019-01-27T10:13:39.922Z,969.34
2019-01-27T10:14:39.904Z,969.34
2019-01-27T10:15:39.878Z,969.25
2019-01-27T10:16:39.853Z,969.27
2019-01-27T10:17:39.830Z,969.25
2019-01-27T10:18:39.815Z,969.26
2019-01-27T10:19:39.782Z,969.27
2019-01-27T10:20:39.759Z,969.30
2019-01-27T10:21:39.740Z,969.31
2019-01-27T10:22:39.721Z,969.35
2019-01-27T10:23:39.701Z,969.27
2019-01-27T10:24:39.673Z,969.34
2019-01-27T10:25:39.657Z,969.24
2019-01-27T10:26:39.627Z,969.21
2019-01-27T10:27:39.611Z,969.21
2019-01-27T10:28:39.588Z,969.17
2019-01-27T10:29:39.566Z,969.21
2019-01-27T10:30:39.544Z,969.16
2019-01-27T10:31:39.525Z,969.17
2019-01-27T10:32:39.496Z,969.13
2019-01-27T10:33:39.482Z,969.17
2019-01-27T10:34:39.453Z,969.15
2019-01-27T10:35:42.811Z,969.15
2019-01-27T10:36:39.411Z,969.14
2019-01-27T10:37:39.386Z,969.11
2019-01-27T10:38:39.373Z,969.13
2019-01-27T10:39:39.346Z,969.10
2019-01-27T10:40:39.804Z,969.06
2019-01-27T10:41:39.298Z,969.10
2019-01-27T10:42:39.279Z,969.02
2019-01-27T10:43:39.254Z,969.00
2019-01-27T10:44:39.237Z,968.92
2019-01-27T10:45:39.209Z,968.95
2019-01-27T10:46:39.186Z,968.89
2019-01-27T10:47:39.160Z,968.81
2019-01-27T10:48:39.145Z,968.83
2019-01-27T10:49:39.126Z,968.85
2019-01-27T10:50:39.096Z,968.80
2019-01-27T10:51:39.083Z,968.79
2019-01-27T10:52:39.057Z,968.81
2019-01-27T10:53:39.028Z,968.82
2019-01-27T10:54:39.006Z,968.79
2019-01-27T10:55:38.993Z,968.72
2019-01-27T10:56:38.968Z,968.72
2019-01-27T10:57:38.940Z,968.66
2019-01-27T10:58:38.927Z,968.68
2019-01-27T10:59:38.905Z,968.60
2019-01-27T11:00:38.878Z,968.64
2019-01-27T11:01:38.857Z,968.60
2019-01-27T11:02:38.830Z,968.63
2019-01-27T11:03:40.284Z,968.67
2019-01-27T11:04:38.788Z,968.68
2019-01-27T11:05:38.763Z,968.67
2019-01-27T11:06:38.741Z,968.66
2019-01-27T11:07:38.724Z,968.68
2019-01-27T11:08:38.702Z,968.71
2019-01-27T11:09:38.680Z,968.65
2019-01-27T11:10:38.661Z,968.67
2019-01-27T11:11:38.635Z,968.69
2019-01-27T11:12:38.612Z,968.59
2019-01-27T11:13:38.584Z,968.61
2019-01-27T11:14:38.564Z,968.67
2019-01-27T11:15:38.539Z,968.67
2019-01-27T11:16:38.520Z,968.68
2019-01-27T11:17:38.499Z,968.62
2019-01-27T11:18:38.471Z,968.62
2019-01-27T11:19:38.448Z,968.59
2019-01-27T11:20:40.009Z,968.56
2019-01-27T11:21:38.409Z,968.57
2019-01-27T11:22:38.381Z,968.53
2019-01-27T11:23:38.362Z,968.53
2019-01-27T11:24:38.332Z,968.50
2019-01-27T11:25:38.311Z,968.53
2019-01-27T11:26:38.289Z,968.44
2019-01-27T11:27:38.266Z,968.45
2019-01-27T11:28:38.250Z,968.42
2019-01-27T11:29:38.227Z,968.41
2019-01-27T11:30:38.199Z,968.41
2019-01-27T11:31:38.184Z,968.42
2019-01-27T11:32:38.155Z,968.40
2019-01-27T11:33:38.138Z,968.34
2019-01-27T11:34:38.129Z,968.37
2019-01-27T11:35:38.097Z,968.33
2019-01-27T11:36:38.065Z,968.30
2019-01-27T11:37:38.052Z,968.29
2019-01-27T11:38:38.024Z,968.30
2019-01-27T11:39:38.001Z,968.23
2019-01-27T11:40:37.978Z,968.21
2019-01-27T11:41:37.965Z,968.14
2019-01-27T11:42:37.940Z,968.07
2019-01-27T11:43:37.918Z,968.09
2019-01-27T11:44:37.895Z,968.13
2019-01-27T11:45:37.867Z,968.06
2019-01-27T11:46:37.854Z,968.12
2019-01-27T11:47:37.829Z,968.07
2019-01-27T11:48:37.809Z,968.06
2019-01-27T11:49:37.782Z,968.08
2019-01-27T11:50:37.764Z,967.96
2019-01-27T11:51:37.742Z,967.95
2019-01-27T11:52:37.726Z,967.91
2019-01-27T11:53:37.701Z,967.80
2019-01-27T11:54:37.673Z,967.94
2019-01-27T11:55:37.650Z,967.86
2019-01-27T11:56:37.634Z,967.94
2019-01-27T11:57:37.612Z,967.82
2019-01-27T11:58:37.590Z,967.84
2019-01-27T11:59:37.561Z,967.92
2019-01-27T12:00:37.575Z,967.92
2019-01-27T12:01:37.526Z,967.87
2019-01-27T12:02:37.501Z,967.79
2019-01-27T12:03:37.482Z,967.82
2019-01-27T12:04:37.462Z,967.85
2019-01-27T12:05:37.438Z,967.81
2019-01-27T12:06:37.408Z,967.79
2019-01-27T12:07:37.396Z,967.82
2019-01-27T12:08:37.373Z,967.76
2019-01-27T12:09:37.350Z,967.66
2019-01-27T12:10:37.325Z,967.64
2019-01-27T12:11:37.301Z,967.66
2019-01-27T12:12:37.276Z,967.52
2019-01-27T12:13:37.507Z,967.65
2019-01-27T12:14:37.244Z,967.61
2019-01-27T12:15:37.212Z,967.64
2019-01-27T12:16:37.189Z,967.63
2019-01-27T12:17:37.167Z,967.70
2019-01-27T12:18:37.151Z,967.63
2019-01-27T12:19:40.326Z,967.62
2019-01-27T12:20:37.108Z,967.63
2019-01-27T12:21:37.085Z,967.63
2019-01-27T12:22:37.056Z,967.61
2019-01-27T12:23:37.040Z,967.68
2019-01-27T12:24:37.018Z,967.59
2019-01-27T12:25:36.996Z,967.55
2019-01-27T12:26:36.970Z,967.54
2019-01-27T12:27:36.951Z,967.53
2019-01-27T12:28:36.928Z,967.53